Time;durP1;ratioP1;P1;durP2;ratioP2;P2;SDS_P1;SDS_P2;PMS_P1;PMS_P2;Temp;Humidity;BMP_temperature;BMP_pressure;BME280_temperature;BME280_humidity;BME280_pressure;Samples;Min_cycle;Max_cycle;Signal;HPM_P1;HPM_P2
2023/05/12 00:02:05;;;;;;;6.60;5.95;;;12.70;90.20;;;;;;5026746;28;20163;-63
2023/05/12 00:04:30;;;;;;;7.05;6.22;;;12.70;90.20;;;;;;5026152;28;20033;-63
2023/05/12 00:06:56;;;;;;;7.35;6.65;;;12.70;90.20;;;;;;5027333;28;20033;-63
2023/05/12 00:09:21;;;;;;;6.80;6.20;;;12.70;90.00;;;;;;5027707;28;20098;-63
2023/05/12 00:11:48;;;;;;;6.65;6.05;;;12.70;90.10;;;;;;5025789;28;20037;-62
2023/05/12 00:14:13;;;;;;;8.88;6.85;;;12.70;90.00;;;;;;5030511;28;20030;-63
2023/05/12 00:16:39;;;;;;;7.60;6.80;;;12.70;90.00;;;;;;5034712;28;20451;-63
2023/05/12 00:19:04;;;;;;;8.15;6.43;;;12.70;90.00;;;;;;5036713;28;20030;-62
2023/05/12 00:21:31;;;;;;;7.63;6.55;;;12.70;90.10;;;;;;5035591;28;20040;-63
2023/05/12 00:23:56;;;;;;;7.50;6.78;;;12.70;90.10;;;;;;5038515;28;20041;-63
2023/05/12 00:26:22;;;;;;;6.93;6.30;;;12.70;90.10;;;;;;5034116;28;20029;-63
2023/05/12 00:28:48;;;;;;;7.00;6.30;;;12.70;90.10;;;;;;5036982;28;20493;-63
2023/05/12 00:31:13;;;;;;;7.15;6.45;;;12.70;90.10;;;;;;5034614;28;20092;-63
2023/05/12 00:33:40;;;;;;;6.97;6.28;;;12.80;90.10;;;;;;5036040;28;20398;-63
2023/05/12 00:36:06;;;;;;;7.18;6.13;;;12.80;90.10;;;;;;5033867;28;20464;-63
2023/05/12 00:38:33;;;;;;;6.47;5.82;;;12.80;90.10;;;;;;5034681;28;20040;-63
2023/05/12 00:40:59;;;;;;;8.50;6.15;;;12.80;90.10;;;;;;5035713;28;20496;-63
2023/05/12 00:43:25;;;;;;;7.07;6.38;;;12.90;90.00;;;;;;5037318;28;20424;-63
2023/05/12 00:45:51;;;;;;;7.72;6.78;;;12.90;90.00;;;;;;5035338;28;20029;-63
2023/05/12 00:48:17;;;;;;;6.85;6.25;;;12.90;90.00;;;;;;5032898;28;20152;-63
2023/05/12 00:50:42;;;;;;;8.02;7.18;;;12.90;90.00;;;;;;5035131;28;20120;-63
2023/05/12 00:53:08;;;;;;;7.72;7.03;;;13.00;90.00;;;;;;5035979;28;20120;-63
2023/05/12 00:55:36;;;;;;;7.50;6.80;;;13.00;90.30;;;;;;5036852;28;20459;-63
2023/05/12 00:58:02;;;;;;;8.68;7.72;;;13.00;89.90;;;;;;5035934;28;20033;-62
2023/05/12 01:00:28;;;;;;;8.05;6.97;;;13.00;89.80;;;;;;5032702;28;20030;-63
2023/05/12 01:02:57;;;;;;;8.25;7.47;;;13.00;89.70;;;;;;5027532;28;20107;-63
2023/05/12 01:05:29;;;;;;;8.68;7.65;;;13.00;89.60;;;;;;5034688;28;20064;-62
2023/05/12 01:07:55;;;;;;;8.45;7.65;;;13.10;89.70;;;;;;5034562;28;20064;-63
2023/05/12 01:10:21;;;;;;;8.45;7.65;;;13.10;89.70;;;;;;5036237;28;20051;-63
2023/05/12 01:12:47;;;;;;;9.10;8.00;;;13.10;89.70;;;;;;5033753;28;20029;-62
2023/05/12 01:15:13;;;;;;;8.43;7.63;;;13.10;89.50;;;;;;5037383;28;20052;-62
2023/05/12 01:17:43;;;;;;;7.97;7.25;;;13.10;89.40;;;;;;5035370;28;20037;-62
2023/05/12 01:20:11;;;;;;;8.40;7.68;;;13.10;89.30;;;;;;5034101;28;20091;-63
2023/05/12 01:22:38;;;;;;;8.20;7.47;;;13.10;89.30;;;;;;5031512;28;20037;-61
2023/05/12 01:25:07;;;;;;;8.65;7.85;;;13.20;89.30;;;;;;5036081;28;20032;-63
2023/05/12 01:27:33;;;;;;;8.50;7.78;;;13.20;89.30;;;;;;5036490;28;20037;-63
2023/05/12 01:30:03;;;;;;;8.68;7.75;;;13.20;89.20;;;;;;5036769;28;20048;-63
2023/05/12 01:32:29;;;;;;;11.48;8.27;;;13.20;89.20;;;;;;5031528;28;20501;-63
2023/05/12 01:34:55;;;;;;;8.70;7.80;;;13.20;90.00;;;;;;5033987;28;20090;-62
2023/05/12 01:37:21;;;;;;;9.20;8.30;;;13.20;89.10;;;;;;5037045;28;20041;-63
2023/05/12 01:39:46;;;;;;;8.90;7.95;;;13.20;89.10;;;;;;5037272;28;20112;-63
2023/05/12 01:42:12;;;;;;;9.07;8.18;;;13.20;89.00;;;;;;5034063;28;20504;-63
2023/05/12 01:44:38;;;;;;;10.88;8.00;;;13.20;89.00;;;;;;5036627;28;20447;-63
2023/05/12 01:47:03;;;;;;;8.50;7.70;;;13.20;88.90;;;;;;5037332;28;20032;-62
2023/05/12 01:49:29;;;;;;;8.70;7.63;;;13.20;89.00;;;;;;5027820;28;20648;-63
2023/05/12 01:51:54;;;;;;;9.88;8.02;;;13.20;88.80;;;;;;5025361;28;20471;-63
2023/05/12 01:54:20;;;;;;;8.70;7.80;;;13.30;88.90;;;;;;5025308;28;20211;-63
2023/05/12 01:56:46;;;;;;;9.23;7.90;;;13.30;88.80;;;;;;5024144;28;20412;-62
2023/05/12 01:59:11;;;;;;;9.07;8.15;;;13.20;88.80;;;;;;5024612;28;20048;-63
2023/05/12 02:01:37;;;;;;;8.20;7.40;;;13.30;88.80;;;;;;5026954;28;20064;-63
2023/05/12 02:04:03;;;;;;;8.45;7.65;;;13.20;88.80;;;;;;5024328;28;20048;-63
2023/05/12 02:06:30;;;;;;;8.50;7.68;;;13.20;88.80;;;;;;5022150;28;20070;-62
2023/05/12 02:08:56;;;;;;;8.63;7.68;;;13.30;88.60;;;;;;5028467;28;20072;-62
2023/05/12 02:11:22;;;;;;;8.05;7.35;;;13.20;88.50;;;;;;5020601;28;20046;-62
2023/05/12 02:13:47;;;;;;;7.97;7.25;;;13.20;88.50;;;;;;5030127;28;20507;-62
2023/05/12 02:16:13;;;;;;;8.30;7.50;;;13.20;88.60;;;;;;5030515;28;20041;-62
2023/05/12 02:18:38;;;;;;;8.30;7.50;;;13.20;88.60;;;;;;5028038;28;20038;-63
2023/05/12 02:21:04;;;;;;;7.85;6.95;;;13.10;88.60;;;;;;5029298;28;20029;-62
2023/05/12 02:23:30;;;;;;;8.35;7.55;;;13.10;88.90;;;;;;5026434;28;20556;-62
2023/05/12 02:25:56;;;;;;;7.70;6.90;;;13.10;89.00;;;;;;5027164;28;20033;-62
2023/05/12 02:28:21;;;;;;;7.75;6.95;;;13.10;89.10;;;;;;5030565;28;20163;-63
2023/05/12 02:30:48;;;;;;;6.82;6.20;;;13.10;90.00;;;;;;5030313;28;20412;-62
2023/05/12 02:33:15;;;;;;;6.75;6.15;;;13.10;89.00;;;;;;5026702;28;20044;-62
2023/05/12 02:35:41;;;;;;;7.00;6.35;;;13.10;88.90;;;;;;5032454;28;20037;-62
2023/05/12 02:38:06;;;;;;;7.90;6.00;;;13.10;88.90;;;;;;5033305;28;20527;-63
2023/05/12 02:40:32;;;;;;;6.57;6.00;;;13.00;88.90;;;;;;5032116;28;20120;-63
2023/05/12 02:42:57;;;;;;;6.53;5.93;;;13.00;89.00;;;;;;5030994;28;20033;-61
2023/05/12 02:45:23;;;;;;;8.63;6.00;;;13.00;89.00;;;;;;5034287;28;20116;-63
2023/05/12 02:47:49;;;;;;;6.90;6.30;;;13.00;89.20;;;;;;5035744;28;20481;-63
2023/05/12 02:50:15;;;;;;;6.70;6.00;;;12.90;89.10;;;;;;5024410;28;20325;-63
2023/05/12 02:52:40;;;;;;;7.25;6.03;;;12.90;89.20;;;;;;5022429;28;20041;-63
2023/05/12 02:55:06;;;;;;;6.22;5.63;;;12.90;89.30;;;;;;5027937;28;20083;-63
2023/05/12 02:57:32;;;;;;;7.15;6.10;;;12.90;89.40;;;;;;5027783;28;20041;-63
2023/05/12 03:00:05;;;;;;;7.97;5.38;;;12.90;89.50;;;;;;5032627;28;20463;-63
2023/05/12 03:02:37;;;;;;;7.65;5.72;;;12.90;89.50;;;;;;5028698;28;20026;-63
2023/05/12 03:05:03;;;;;;;6.38;5.50;;;13.00;89.50;;;;;;5030337;28;20099;-63
2023/05/12 03:07:29;;;;;;;5.95;5.45;;;13.00;89.40;;;;;;5029335;28;20069;-63
2023/05/12 03:09:54;;;;;;;5.45;5.05;;;13.00;89.30;;;;;;5030859;28;20450;-63
2023/05/12 03:12:20;;;;;;;5.90;5.40;;;13.00;89.30;;;;;;5023901;28;20040;-63
2023/05/12 03:14:46;;;;;;;5.78;5.28;;;13.00;89.30;;;;;;5028265;28;20551;-63
2023/05/12 03:17:12;;;;;;;6.20;5.60;;;13.00;89.30;;;;;;5028834;28;20099;-63
2023/05/12 03:19:37;;;;;;;5.95;5.35;;;13.00;89.30;;;;;;5026866;28;20056;-63
2023/05/12 03:22:03;;;;;;;5.93;5.40;;;13.00;89.20;;;;;;5024375;28;20037;-63
2023/05/12 03:24:29;;;;;;;5.88;5.38;;;13.10;89.20;;;;;;5025310;28;20434;-62
2023/05/12 03:26:55;;;;;;;5.97;5.40;;;13.00;89.10;;;;;;5025950;28;20038;-63
2023/05/12 03:29:21;;;;;;;6.80;5.38;;;13.00;89.20;;;;;;5025685;28;20050;-62
2023/05/12 03:31:46;;;;;;;5.72;5.22;;;13.00;89.20;;;;;;5019898;28;20047;-63
2023/05/12 03:34:12;;;;;;;5.93;5.43;;;13.00;89.10;;;;;;5024557;28;20911;-62
2023/05/12 03:36:38;;;;;;;6.22;5.63;;;13.00;89.00;;;;;;5026139;28;20042;-63
2023/05/12 03:39:03;;;;;;;6.38;5.82;;;13.00;89.00;;;;;;5023087;28;20048;-62
2023/05/12 03:41:29;;;;;;;6.50;5.90;;;13.00;88.80;;;;;;5022182;28;20065;-63
2023/05/12 03:43:54;;;;;;;5.90;5.40;;;13.00;88.90;;;;;;5025029;28;20042;-62
2023/05/12 03:46:20;;;;;;;6.20;5.63;;;12.90;89.00;;;;;;5030912;28;20128;-62
2023/05/12 03:48:46;;;;;;;6.50;5.90;;;12.90;89.20;;;;;;5017334;28;20041;-62
2023/05/12 03:51:11;;;;;;;6.93;5.63;;;12.90;89.20;;;;;;5025664;28;20038;-62
2023/05/12 03:53:41;;;;;;;6.80;5.75;;;12.90;89.20;;;;;;5021027;28;20041;-62
2023/05/12 03:56:07;;;;;;;6.47;5.88;;;12.90;89.20;;;;;;5026095;28;20049;-61
2023/05/12 03:58:32;;;;;;;6.05;5.20;;;12.90;89.30;;;;;;5029756;28;20390;-63
2023/05/12 04:01:00;;;;;;;6.50;5.50;;;13.00;89.40;;;;;;5024135;28;20520;-62
2023/05/12 04:03:28;;;;;;;5.97;5.47;;;13.00;89.50;;;;;;5025843;28;20053;-62
2023/05/12 04:05:59;;;;;;;5.82;5.32;;;13.00;89.40;;;;;;5025250;28;20508;-62
2023/05/12 04:08:25;;;;;;;5.85;5.35;;;13.00;89.30;;;;;;5020999;28;20068;-62
2023/05/12 04:10:53;;;;;;;6.40;5.80;;;13.00;89.20;;;;;;5020349;28;20030;-63
2023/05/12 04:13:18;;;;;;;5.88;5.38;;;13.10;89.30;;;;;;5024102;28;20101;-62
2023/05/12 04:15:44;;;;;;;6.07;5.47;;;13.10;89.30;;;;;;5031898;28;20558;-63
2023/05/12 04:18:09;;;;;;;7.25;6.45;;;13.10;89.20;;;;;;5031831;28;20447;-62
2023/05/12 04:20:35;;;;;;;8.15;7.35;;;13.10;89.30;;;;;;5025629;28;20059;-62
2023/05/12 04:23:00;;;;;;;7.13;6.43;;;13.10;89.20;;;;;;5022383;28;20035;-61
2023/05/12 04:25:26;;;;;;;7.70;6.90;;;13.10;89.10;;;;;;5027435;28;20075;-62
2023/05/12 04:27:52;;;;;;;6.60;6.00;;;13.10;89.00;;;;;;5023615;28;20044;-62
2023/05/12 04:30:17;;;;;;;7.63;6.50;;;13.20;89.00;;;;;;5020750;28;20366;-62
2023/05/12 04:32:43;;;;;;;7.18;6.47;;;13.10;88.90;;;;;;5022017;28;20048;-62
2023/05/12 04:35:08;;;;;;;8.10;7.25;;;13.20;89.00;;;;;;5024312;28;20521;-62
2023/05/12 04:37:34;;;;;;;7.43;6.72;;;13.20;89.00;;;;;;5026686;28;20406;-62
2023/05/12 04:40:00;;;;;;;7.35;6.65;;;13.20;88.90;;;;;;5030921;28;20037;-62
2023/05/12 04:42:25;;;;;;;7.57;5.97;;;13.20;88.80;;;;;;5029735;28;20065;-63
2023/05/12 04:44:51;;;;;;;6.13;5.63;;;13.20;88.80;;;;;;5032837;28;20503;-62
2023/05/12 04:47:17;;;;;;;6.63;5.95;;;13.30;88.80;;;;;;5031925;28;20050;-62
2023/05/12 04:49:42;;;;;;;6.85;6.25;;;13.30;88.70;;;;;;5032203;28;20687;-62
2023/05/12 04:52:08;;;;;;;6.80;6.20;;;13.30;88.70;;;;;;5032134;28;20451;-63
2023/05/12 04:54:33;;;;;;;8.27;6.35;;;13.20;88.60;;;;;;5032220;28;20082;-62
2023/05/12 04:56:59;;;;;;;6.75;6.15;;;13.20;88.60;;;;;;5032104;28;20037;-61
2023/05/12 04:59:24;;;;;;;6.60;6.00;;;13.30;88.50;;;;;;5031928;28;20036;-62
2023/05/12 05:01:50;;;;;;;6.70;6.10;;;13.30;88.30;;;;;;5030752;28;20068;-60
2023/05/12 05:04:16;;;;;;;7.30;6.60;;;13.30;88.30;;;;;;5032696;28;20485;-63
2023/05/12 05:06:41;;;;;;;6.88;6.28;;;13.30;88.30;;;;;;5028350;28;20056;-63
2023/05/12 05:09:07;;;;;;;6.80;6.20;;;13.30;88.50;;;;;;5029142;28;20041;-62
2023/05/12 05:11:33;;;;;;;7.22;6.57;;;13.30;88.50;;;;;;5023813;28;20034;-62
2023/05/12 05:13:58;;;;;;;6.75;6.15;;;13.20;88.40;;;;;;5027125;28;20052;-63
2023/05/12 05:16:24;;;;;;;6.63;6.10;;;13.30;88.50;;;;;;5029573;28;20040;-62
2023/05/12 05:18:50;;;;;;;7.18;6.28;;;13.30;88.60;;;;;;5028243;28;20435;-62
2023/05/12 05:21:15;;;;;;;7.18;6.47;;;13.30;88.70;;;;;;5027824;28;20041;-61
2023/05/12 05:23:41;;;;;;;6.97;6.38;;;13.30;88.70;;;;;;5025256;28;20044;-60
2023/05/12 05:26:08;;;;;;;6.90;6.30;;;13.30;88.70;;;;;;5032404;28;20398;-63
2023/05/12 05:28:34;;;;;;;7.57;6.88;;;13.30;88.80;;;;;;5025800;28;20041;-63
2023/05/12 05:30:59;;;;;;;7.45;6.75;;;13.30;88.80;;;;;;5023235;28;20029;-63
2023/05/12 05:33:25;;;;;;;6.55;5.95;;;13.30;88.80;;;;;;5017335;28;20079;-63
2023/05/12 05:35:51;;;;;;;7.00;6.30;;;13.40;88.90;;;;;;5027074;28;20447;-62
2023/05/12 05:38:16;;;;;;;6.97;6.38;;;13.40;88.80;;;;;;5027402;28;20087;-63
2023/05/12 05:40:42;;;;;;;7.00;6.30;;;13.40;88.60;;;;;;5026387;28;20033;-62
2023/05/12 05:43:07;;;;;;;6.35;5.85;;;13.40;88.60;;;;;;5028545;28;20083;-62
2023/05/12 05:45:33;;;;;;;6.18;5.68;;;13.50;88.60;;;;;;5026401;28;20029;-63
2023/05/12 05:47:59;;;;;;;5.85;5.28;;;13.50;88.50;;;;;;5028567;28;20029;-63
2023/05/12 05:50:24;;;;;;;6.63;5.97;;;13.50;88.50;;;;;;5030055;28;20076;-62
2023/05/12 05:52:50;;;;;;;6.13;5.53;;;13.50;88.30;;;;;;5027937;28;20036;-63
2023/05/12 05:55:16;;;;;;;5.85;5.25;;;13.50;88.30;;;;;;5030477;28;20033;-63
2023/05/12 05:57:42;;;;;;;4.93;4.53;;;13.50;88.10;;;;;;5032029;28;20029;-63
2023/05/12 06:00:08;;;;;;;5.18;4.72;;;13.50;88.70;;;;;;5028524;28;20408;-62
2023/05/12 06:02:35;;;;;;;4.97;4.30;;;13.50;87.80;;;;;;5027449;28;20033;-63
2023/05/12 06:05:01;;;;;;;5.38;4.88;;;13.60;87.80;;;;;;5029557;28;20491;-63
2023/05/12 06:07:27;;;;;;;5.32;4.93;;;13.60;87.90;;;;;;5026205;28;20069;-62
2023/05/12 06:09:53;;;;;;;4.88;4.47;;;13.60;88.00;;;;;;5030312;28;20045;-62
2023/05/12 06:12:19;;;;;;;5.55;5.07;;;13.60;88.00;;;;;;5023932;28;20295;-62
2023/05/12 06:14:45;;;;;;;5.25;4.72;;;13.60;88.10;;;;;;5026842;28;20992;-63
2023/05/12 06:17:11;;;;;;;4.88;4.47;;;13.70;88.00;;;;;;5026683;28;20038;-63
2023/05/12 06:19:36;;;;;;;4.28;3.97;;;13.70;87.90;;;;;;5028421;28;20088;-63
2023/05/12 06:22:02;;;;;;;4.40;4.10;;;13.80;87.40;;;;;;5027986;28;20048;-63
2023/05/12 06:24:28;;;;;;;4.72;4.32;;;13.80;87.30;;;;;;5026921;28;20049;-63
2023/05/12 06:26:53;;;;;;;4.35;4.05;;;13.80;87.00;;;;;;5027652;28;20045;-63
2023/05/12 06:29:20;;;;;;;3.90;3.50;;;13.90;86.90;;;;;;5030030;28;20333;-63
2023/05/12 06:31:45;;;;;;;3.70;3.40;;;13.90;86.90;;;;;;5029332;28;20336;-63
2023/05/12 06:34:11;;;;;;;3.40;3.10;;;14.00;86.70;;;;;;5027401;28;20114;-63
2023/05/12 06:36:37;;;;;;;3.50;3.20;;;14.00;86.40;;;;;;5029954;28;21075;-63
2023/05/12 06:39:03;;;;;;;4.03;3.72;;;14.10;86.20;;;;;;5029086;28;20047;-62
2023/05/12 06:41:29;;;;;;;3.95;3.55;;;14.10;85.80;;;;;;5027615;28;20041;-63
2023/05/12 06:43:55;;;;;;;3.08;2.88;;;14.10;85.50;;;;;;5027705;28;20120;-63
2023/05/12 06:46:20;;;;;;;3.55;3.25;;;14.20;85.20;;;;;;5025907;28;20400;-63
2023/05/12 06:48:46;;;;;;;2.60;1.40;;;14.20;85.20;;;;;;5026976;28;20053;-63
2023/05/12 06:51:12;;;;;;;1.75;1.17;;;14.30;84.70;;;;;;5028730;28;20036;-63
2023/05/12 06:53:41;;;;;;;1.70;1.60;;;14.30;84.30;;;;;;5028350;28;20172;-63
2023/05/12 06:56:06;;;;;;;1.50;1.40;;;14.30;84.10;;;;;;5028125;28;20052;-63
2023/05/12 06:58:32;;;;;;;1.42;1.33;;;14.40;84.00;;;;;;5026989;28;20123;-64
2023/05/12 07:00:58;;;;;;;1.38;1.27;;;14.40;83.90;;;;;;5027054;28;20048;-63
2023/05/12 07:03:23;;;;;;;2.58;1.90;;;14.40;83.60;;;;;;5026751;28;20062;-63
2023/05/12 07:05:49;;;;;;;1.75;1.65;;;14.50;83.50;;;;;;5024353;28;20120;-63
2023/05/12 07:08:15;;;;;;;1.20;1.20;;;14.50;83.40;;;;;;5028281;28;20050;-63
2023/05/12 07:10:40;;;;;;;1.30;1.30;;;14.60;83.30;;;;;;5024036;28;20033;-64
2023/05/12 07:13:06;;;;;;;1.05;1.05;;;14.60;83.30;;;;;;5031957;28;20045;-64
2023/05/12 07:15:32;;;;;;;0.93;0.93;;;14.60;82.70;;;;;;5031172;28;20025;-64
2023/05/12 07:17:57;;;;;;;0.90;0.90;;;14.70;82.60;;;;;;5031048;28;20040;-63
2023/05/12 07:20:23;;;;;;;1.27;1.25;;;14.70;82.40;;;;;;5028853;28;20040;-63
2023/05/12 07:22:51;;;;;;;0.82;0.82;;;14.70;82.20;;;;;;5024020;28;20099;-63
2023/05/12 07:25:16;;;;;;;0.88;0.88;;;14.80;82.20;;;;;;5024571;28;20038;-63
2023/05/12 07:27:42;;;;;;;1.00;0.98;;;14.80;82.00;;;;;;5026187;28;20115;-62
2023/05/12 07:30:08;;;;;;;1.08;0.93;;;14.80;81.90;;;;;;5025500;28;20131;-61
2023/05/12 07:32:34;;;;;;;1.33;1.10;;;14.80;81.70;;;;;;5025682;28;20041;-63
2023/05/12 07:35:00;;;;;;;2.65;1.20;;;14.90;81.40;;;;;;5026731;28;20026;-63
2023/05/12 07:37:25;;;;;;;1.40;1.30;;;14.90;81.30;;;;;;5028016;28;20036;-63
2023/05/12 07:39:51;;;;;;;0.98;0.80;;;14.90;81.50;;;;;;5026358;28;20238;-63
2023/05/12 07:42:16;;;;;;;0.52;0.52;;;15.00;81.10;;;;;;5023422;28;20172;-62
2023/05/12 07:44:43;;;;;;;0.50;0.50;;;15.00;81.20;;;;;;5028235;28;20040;-63
2023/05/12 07:47:09;;;;;;;0.90;0.90;;;15.00;81.10;;;;;;5032011;28;20044;-63
2023/05/12 07:49:34;;;;;;;0.80;0.80;;;15.10;81.00;;;;;;5032801;28;20357;-63
2023/05/12 07:52:00;;;;;;;0.95;0.95;;;15.10;80.70;;;;;;5023590;28;20036;-63
2023/05/12 07:54:25;;;;;;;0.65;0.65;;;15.10;80.50;;;;;;5026784;28;20071;-63
2023/05/12 07:56:51;;;;;;;0.77;0.77;;;15.20;80.60;;;;;;5014128;28;20049;-63
2023/05/12 07:59:17;;;;;;;1.27;1.17;;;15.20;80.30;;;;;;5026605;28;20051;-63
2023/05/12 08:01:42;;;;;;;0.80;0.80;;;15.20;80.50;;;;;;5022891;28;20164;-63
2023/05/12 08:04:08;;;;;;;0.80;0.80;;;15.30;80.50;;;;;;5023707;28;20077;-63
2023/05/12 08:06:34;;;;;;;0.95;0.95;;;15.40;80.50;;;;;;5032028;28;20373;-62
2023/05/12 08:09:00;;;;;;;0.30;0.30;;;15.40;80.60;;;;;;5029194;28;20405;-63
2023/05/12 08:11:26;;;;;;;0.28;0.28;;;15.40;80.40;;;;;;5029093;28;20553;-62
2023/05/12 08:13:52;;;;;;;0.47;0.47;;;15.50;79.70;;;;;;5033200;28;20312;-63
2023/05/12 08:16:17;;;;;;;0.40;0.40;;;15.60;79.30;;;;;;5035238;28;20515;-63
2023/05/12 08:18:43;;;;;;;1.63;0.40;;;15.60;79.20;;;;;;5033740;28;20386;-63
2023/05/12 08:21:09;;;;;;;0.40;0.40;;;15.70;79.10;;;;;;5035331;28;20048;-63
2023/05/12 08:23:36;;;;;;;0.40;0.40;;;15.70;78.80;;;;;;5031985;28;20041;-63
2023/05/12 08:26:03;;;;;;;0.35;0.35;;;15.80;78.60;;;;;;5034902;28;20034;-62
2023/05/12 08:28:29;;;;;;;0.70;0.52;;;15.90;78.70;;;;;;5033399;28;20036;-63
2023/05/12 08:30:55;;;;;;;0.50;0.50;;;15.90;78.60;;;;;;5033906;28;20045;-63
2023/05/12 08:33:21;;;;;;;1.20;0.50;;;15.90;78.00;;;;;;5029736;28;20112;-62
2023/05/12 08:35:46;;;;;;;0.40;0.40;;;16.00;77.70;;;;;;5030685;28;20033;-63
2023/05/12 08:38:12;;;;;;;0.73;0.50;;;16.00;77.70;;;;;;5030783;28;20033;-63
2023/05/12 08:41:10;;;;;;;0.50;0.50;;;16.00;77.40;;;;;;5031659;28;21211;-63
2023/05/12 08:43:49;;;;;;;0.50;0.50;;;16.00;76.80;;;;;;5027031;28;20117;-63
2023/05/12 08:46:15;;;;;;;0.63;0.63;;;16.10;76.80;;;;;;5031262;28;20083;-61
2023/05/12 08:48:43;;;;;;;0.60;0.60;;;16.10;77.30;;;;;;5030299;28;20053;-62
2023/05/12 08:51:10;;;;;;;0.60;0.60;;;16.10;76.90;;;;;;5029897;28;20025;-63
2023/05/12 08:53:40;;;;;;;0.55;0.55;;;16.20;77.00;;;;;;5030442;28;20544;-63
2023/05/12 08:56:08;;;;;;;0.50;0.50;;;16.20;76.00;;;;;;5032002;28;21351;-63
2023/05/12 08:58:35;;;;;;;0.65;0.63;;;16.20;76.60;;;;;;5030673;28;20397;-62
2023/05/12 09:01:03;;;;;;;0.70;0.70;;;16.20;76.80;;;;;;5031467;28;20033;-62
2023/05/12 09:03:30;;;;;;;3.35;0.80;;;16.30;76.80;;;;;;5031121;28;20128;-63
2023/05/12 09:05:57;;;;;;;0.80;0.80;;;16.30;76.80;;;;;;5029103;28;20412;-63
2023/05/12 09:08:28;;;;;;;0.85;0.80;;;16.40;76.80;;;;;;5031922;28;20560;-62
2023/05/12 09:10:56;;;;;;;0.80;0.80;;;16.40;76.10;;;;;;5025717;28;20040;-63
2023/05/12 09:13:39;;;;;;;0.73;0.73;;;16.50;75.50;;;;;;5031893;28;20090;-63
2023/05/12 09:16:10;;;;;;;0.73;0.73;;;16.60;74.50;;;;;;5034904;28;20416;-63
2023/05/12 09:18:56;;;;;;;0.82;0.70;;;16.50;75.40;;;;;;5033540;28;20037;-63
2023/05/12 09:21:23;;;;;;;1.85;0.85;;;16.50;74.50;;;;;;5031962;28;20507;-63
2023/05/12 09:23:57;;;;;;;0.82;0.82;;;16.60;75.60;;;;;;5032110;28;20120;-63
2023/05/12 09:26:25;;;;;;;0.52;0.52;;;16.60;74.20;;;;;;5033559;28;20112;-63
2023/05/12 09:29:05;;;;;;;1.27;0.80;;;16.60;75.10;;;;;;5029098;28;20696;-63
2023/05/12 09:31:30;;;;;;;0.80;0.80;;;16.60;74.70;;;;;;5033770;28;20504;-63
2023/05/12 09:33:57;;;;;;;2.05;0.80;;;16.70;74.30;;;;;;5028045;28;20040;-63
2023/05/12 09:36:24;;;;;;;0.70;0.70;;;16.70;74.30;;;;;;5027406;28;21018;-63
2023/05/12 09:39:03;;;;;;;0.65;0.65;;;16.70;74.70;;;;;;5028258;28;20075;-63
2023/05/12 09:41:39;;;;;;;0.85;0.77;;;16.70;72.70;;;;;;5029030;28;20404;-63
2023/05/12 09:44:06;;;;;;;0.80;0.80;;;16.70;74.30;;;;;;5030310;28;20469;-62
2023/05/12 09:46:32;;;;;;;0.70;0.70;;;16.80;73.70;;;;;;5030605;28;20041;-63
2023/05/12 09:48:58;;;;;;;0.85;0.70;;;16.80;73.60;;;;;;5031110;28;20041;-63
2023/05/12 09:51:25;;;;;;;1.90;0.85;;;16.80;74.00;;;;;;5027146;28;20112;-62
2023/05/12 09:53:51;;;;;;;0.73;0.73;;;16.80;74.10;;;;;;5032011;28;20030;-63
2023/05/12 09:56:17;;;;;;;0.80;0.80;;;16.80;74.10;;;;;;5034976;28;20040;-63
2023/05/12 09:58:46;;;;;;;1.10;0.75;;;16.90;74.00;;;;;;5024581;28;20059;-63
2023/05/12 10:01:13;;;;;;;0.80;0.80;;;16.90;73.70;;;;;;5030388;28;20095;-64
2023/05/12 10:03:41;;;;;;;1.00;0.50;;;16.90;73.80;;;;;;5027463;28;20056;-64
2023/05/12 10:06:10;;;;;;;0.57;0.57;;;16.90;73.20;;;;;;5035025;28;20029;-64
2023/05/12 10:08:46;;;;;;;0.40;0.40;;;16.90;72.80;;;;;;5035230;28;20044;-63
2023/05/12 10:11:12;;;;;;;0.30;0.30;;;16.90;72.20;;;;;;5033457;28;20029;-64
2023/05/12 10:13:38;;;;;;;0.80;0.70;;;16.80;72.40;;;;;;5034997;28;20436;-63
2023/05/12 10:16:05;;;;;;;0.85;0.60;;;16.90;72.40;;;;;;5036721;28;20036;-63
2023/05/12 10:18:33;;;;;;;0.60;0.60;;;16.80;72.20;;;;;;5035697;28;20030;-63
2023/05/12 10:21:00;;;;;;;0.75;0.60;;;16.80;73.00;;;;;;5052107;28;20484;-64
2023/05/12 10:23:26;;;;;;;0.60;0.60;;;16.70;73.30;;;;;;5033572;28;20029;-64
2023/05/12 10:25:57;;;;;;;0.50;0.50;;;16.70;73.50;;;;;;5035989;28;20032;-64
2023/05/12 10:28:24;;;;;;;0.60;0.50;;;16.80;74.20;;;;;;5032289;28;20496;-64
2023/05/12 10:30:51;;;;;;;0.60;0.60;;;16.80;73.50;;;;;;5034562;28;20045;-63
2023/05/12 10:33:17;;;;;;;1.00;0.65;;;16.80;73.20;;;;;;5033939;28;20037;-63
2023/05/12 10:35:44;;;;;;;0.57;0.50;;;16.80;73.40;;;;;;5034219;28;20069;-63
2023/05/12 10:38:12;;;;;;;0.50;0.50;;;16.90;73.40;;;;;;5036638;28;20071;-63
2023/05/12 10:40:51;;;;;;;0.32;0.32;;;16.80;73.20;;;;;;5035100;28;20313;-63
2023/05/12 10:43:23;;;;;;;0.52;0.47;;;16.90;72.10;;;;;;5034323;28;20116;-63
2023/05/12 10:46:08;;;;;;;0.20;0.20;;;16.90;73.00;;;;;;5033382;28;20136;-63
2023/05/12 10:48:36;;;;;;;0.30;0.30;;;16.90;72.60;;;;;;5024997;28;20496;-62
2023/05/12 10:51:09;;;;;;;0.32;0.32;;;16.90;73.30;;;;;;5030569;28;20041;-63
2023/05/12 10:53:36;;;;;;;0.30;0.30;;;16.90;73.50;;;;;;5026622;28;20041;-63
2023/05/12 10:56:05;;;;;;;0.30;0.30;;;17.00;73.50;;;;;;5025517;28;20056;-63
2023/05/12 10:58:31;;;;;;;0.28;0.20;;;17.00;73.30;;;;;;5026560;28;20037;-63
2023/05/12 11:01:06;;;;;;;0.20;0.10;;;17.00;73.40;;;;;;5030179;28;20179;-62
2023/05/12 11:03:35;;;;;;;;;;;17.10;72.60;;;;;;5020359;28;20069;-63
2023/05/12 11:06:03;;;;;;;0.10;0.10;;;17.10;73.50;;;;;;5029315;28;20339;-63
2023/05/12 11:08:30;;;;;;;0.32;0.20;;;17.10;73.20;;;;;;5025846;28;20124;-63
2023/05/12 11:10:56;;;;;;;0.10;0.10;;;17.10;72.90;;;;;;5027882;28;20079;-63
2023/05/12 11:13:23;;;;;;;0.28;0.20;;;17.20;72.80;;;;;;5026145;28;20473;-63
2023/05/12 11:15:49;;;;;;;0.30;0.20;;;17.20;72.70;;;;;;5024795;28;20037;-63
2023/05/12 11:18:22;;;;;;;0.10;0.10;;;17.30;72.70;;;;;;5022828;28;20045;-63
2023/05/12 11:20:48;;;;;;;0.25;0.10;;;17.30;72.00;;;;;;5017928;28;20045;-62
2023/05/12 11:23:27;;;;;;;0.40;0.10;;;17.30;72.30;;;;;;4987076;28;1095232;-63
2023/05/12 11:25:53;;;;;;;1.38;0.10;;;17.40;71.50;;;;;;5033825;28;20041;-63
2023/05/12 11:28:19;;;;;;;0.10;0.10;;;17.50;72.10;;;;;;5028019;28;20051;-64
2023/05/12 11:30:52;;;;;;;0.00;0.00;;;17.50;71.30;;;;;;5031750;28;20039;-63
2023/05/12 11:33:21;;;;;;;0.00;0.00;;;17.60;70.20;;;;;;5029253;28;20034;-63
2023/05/12 11:35:47;;;;;;;0.30;0.10;;;17.70;70.60;;;;;;5028436;28;20026;-63
2023/05/12 11:38:17;;;;;;;0.10;0.10;;;17.70;70.70;;;;;;5026816;28;20029;-63
2023/05/12 11:40:43;;;;;;;0.10;0.10;;;17.90;70.30;;;;;;5025026;28;20029;-63
2023/05/12 11:43:10;;;;;;;0.00;0.00;;;17.80;70.00;;;;;;5021189;28;20060;-63
2023/05/12 11:45:36;;;;;;;0.10;0.10;;;17.90;69.80;;;;;;5018676;28;21421;-63
2023/05/12 11:48:13;;;;;;;0.43;0.10;;;17.90;70.00;;;;;;5026691;28;20095;-63
2023/05/12 11:50:41;;;;;;;0.15;0.10;;;17.90;69.30;;;;;;5023578;28;20446;-63
2023/05/12 11:53:16;;;;;;;0.30;0.20;;;17.90;70.00;;;;;;5026008;28;20043;-63
2023/05/12 11:55:49;;;;;;;0.52;0.20;;;17.90;69.40;;;;;;5021076;28;20033;-64
2023/05/12 12:00:43;;;;;;;0.20;0.10;;;18.00;69.80;;;;;;5010793;28;20034;-62
2023/05/12 12:03:11;;;;;;;0.50;0.17;;;18.00;69.40;;;;;;5012075;28;20088;-63
2023/05/12 12:05:41;;;;;;;0.25;0.20;;;18.10;69.50;;;;;;5015219;28;20034;-63
2023/05/12 12:08:12;;;;;;;0.35;0.10;;;18.10;69.80;;;;;;5010330;28;20431;-64
2023/05/12 12:10:42;;;;;;;0.35;0.10;;;18.20;69.20;;;;;;5007600;28;20528;-63
2023/05/12 12:13:08;;;;;;;0.10;0.10;;;18.20;69.20;;;;;;5013498;28;20048;-64
2023/05/12 12:15:33;;;;;;;0.73;0.10;;;18.30;68.90;;;;;;5014217;28;20038;-63
2023/05/12 12:17:59;;;;;;;0.35;0.20;;;18.30;68.60;;;;;;5010654;28;20034;-63
2023/05/12 12:20:25;;;;;;;0.40;0.20;;;18.40;68.30;;;;;;5012824;28;21186;-63
2023/05/12 12:22:51;;;;;;;0.20;0.20;;;18.40;68.10;;;;;;5010797;28;20095;-63
2023/05/12 12:25:18;;;;;;;0.32;0.25;;;18.50;67.70;;;;;;5012993;28;20165;-64
2023/05/12 12:27:44;;;;;;;0.30;0.30;;;18.40;67.60;;;;;;5000117;28;20037;-63
2023/05/12 12:30:10;;;;;;;0.20;0.20;;;18.50;67.40;;;;;;5014976;28;20034;-63
2023/05/12 12:32:36;;;;;;;0.77;0.30;;;18.50;67.40;;;;;;5014784;28;20026;-63
2023/05/12 12:35:05;;;;;;;1.35;0.60;;;18.50;68.00;;;;;;5011557;28;20032;-63
2023/05/12 12:37:31;;;;;;;0.98;0.47;;;18.50;68.10;;;;;;5012021;28;20060;-64
2023/05/12 12:39:56;;;;;;;0.88;0.35;;;18.40;68.50;;;;;;5008033;28;20432;-63
2023/05/12 12:42:22;;;;;;;0.20;0.20;;;18.40;68.60;;;;;;5006671;28;20034;-63
2023/05/12 12:44:50;;;;;;;0.50;0.30;;;18.50;68.50;;;;;;5016361;28;20040;-62
2023/05/12 12:47:16;;;;;;;0.40;0.20;;;18.40;68.50;;;;;;5015047;28;20037;-64
2023/05/12 12:49:42;;;;;;;0.40;0.40;;;18.40;68.80;;;;;;5013349;28;20065;-60